全部
Ljungbyhed Airport (Ljungbyhed) ESTL 天氣
|
Ljungbyhed (ESTL)
晴天
微風 |
|
18 °C |
ESTL終端機場天氣預報
| Date | Time (CEST) | Flight Rules | Wind Dir. | Speed | Type | Height AGL (ft) | Visibility | Remarks | ||||||
|---|---|---|---|---|---|---|---|---|---|---|---|---|---|---|
ESTL近期METAR歷史資料
| Date | Time (CEST) | Flight Rules | Wind Dir. | Speed | Type | Height AGL (ft) | Visibility | Temp (°C) | Temp (°F) | Dew Point (°C) | Dew Point (°F) | Rel. Humid. | Pressure | Density Altitude | Remarks |
|---|---|---|---|---|---|---|---|---|---|---|---|---|---|---|---|
| 02-五月 | 20:50 | VFR | 220° | 5 kt | 10000 meters | 18° | 64° | 6° | 42° | 45% | 1013 mb | 506 ft | |||
| 02-五月 | 20:20 | VFR | 210° | 7 kt | 10000 meters | 19° | 66° | 6° | 42° | 43% | 1013 mb | 626 ft | |||
| 02-五月 | 19:50 | VFR | 220° | 6 kt | 10000 meters | 20° | 68° | 6° | 42° | 40% | 1013 mb | 746 ft | |||
| 02-五月 | 19:20 | VFR | 220° | 8 kt | 10000 meters | 22° | 71° | 5° | 41° | 33% | 1013 mb | 986 ft | |||
| 02-五月 | 18:50 | VFR | 220° | 10 kt | 10000 meters | 22° | 71° | 6° | 42° | 35% | 1013 mb | 986 ft | |||
| 02-五月 | 18:20 | VFR | 210° | 11 kt | 10000 meters | 22° | 71° | 6° | 42° | 35% | 1014 mb | 957 ft | |||
| 02-五月 | 17:50 | VFR | 210° | 12 kt | 10000 meters | 23° | 73° | 6° | 42° | 33% | 1014 mb | 1,077 ft | |||
| 02-五月 | 17:20 | VFR | 220° | 13 kt | 10000 meters | 23° | 73° | 6° | 42° | 33% | 1014 mb | 1,077 ft | |||
| 02-五月 | 16:50 | VFR | 200° | 12 kt | 10000 meters | 23° | 73° | 6° | 42° | 33% | 1014 mb | 1,077 ft | |||
| 02-五月 | 16:20 | VFR | 210° | 12 kt | 10000 meters | 23° | 73° | 6° | 42° | 33% | 1015 mb | 1,047 ft | |||
| 02-五月 | 15:50 | VFR | 220° | 13 kt | 10000 meters | 23° | 73° | 6° | 42° | 33% | 1015 mb | 1,047 ft | |||
| 02-五月 | 15:20 | VFR | 220° | 13 kt | 10000 meters | 23° | 73° | 6° | 42° | 33% | 1016 mb | 1,018 ft | |||
| 02-五月 | 14:50 | VFR | 200° | 13 kt | 10000 meters | 23° | 73° | 4° | 39° | 29% | 1016 mb | 1,018 ft | |||
| 02-五月 | 14:20 | VFR | 220° | 11 kt | 10000 meters | 24° | 75° | 6° | 42° | 31% | 1016 mb | 1,138 ft | |||
| 02-五月 | 13:50 | VFR | 220° | 10 kt | 10000 meters | 24° | 75° | 6° | 42° | 31% | 1017 mb | 1,108 ft | |||
| 02-五月 | 13:20 | VFR | 210° | 11 kt | 10000 meters | 23° | 73° | 6° | 42° | 33% | 1017 mb | 988 ft | |||
| 02-五月 | 12:50 | VFR | 200° | 11 kt | 10000 meters | 22° | 71° | 6° | 42° | 35% | 1017 mb | 868 ft | |||
| 02-五月 | 12:20 | VFR | 190° | 10 kt | 10000 meters | 22° | 71° | 6° | 42° | 35% | 1018 mb | 838 ft | |||
| 02-五月 | 11:50 | VFR | 190° | 7 kt | 10000 meters | 22° | 71° | 7° | 44° | 38% | 1018 mb | 838 ft | |||
| 02-五月 | 11:20 | VFR | 220° | 8 kt | 10000 meters | 21° | 69° | 7° | 44° | 40% | 1018 mb | 718 ft | |||
| 02-五月 | 10:50 | VFR | 220° | 10 kt | 10000 meters | 21° | 69° | 6° | 42° | 38% | 1018 mb | 718 ft | |||
| 02-五月 | 10:20 | VFR | 200° | 10 kt | 10000 meters | 20° | 68° | 7° | 44° | 43% | 1019 mb | 569 ft | |||
| 02-五月 | 09:50 | VFR | 190° | 9 kt | 10000 meters | 19° | 66° | 6° | 42° | 43% | 1019 mb | 449 ft | |||
| 02-五月 | 09:20 | VFR | 210° | 9 kt | 10000 meters | 18° | 64° | 6° | 42° | 45% | 1019 mb | 329 ft |
登入
| 您的瀏覽器不支援. 升級您的瀏覽器 |
